createdAt,value
2023-04-29T00:01:40.179Z,11.06
2023-04-29T00:04:07.056Z,10.99
2023-04-29T00:06:33.967Z,11.02
2023-04-29T00:09:00.565Z,10.91
2023-04-29T00:11:27.309Z,10.93
2023-04-29T00:13:53.907Z,10.86
2023-04-29T00:16:20.557Z,10.84
2023-04-29T00:18:47.239Z,10.95
2023-04-29T00:21:13.877Z,10.89
2023-04-29T00:23:40.658Z,10.88
2023-04-29T00:26:07.296Z,10.86
2023-04-29T00:28:34.111Z,10.95
2023-04-29T00:31:00.773Z,10.76
2023-04-29T00:33:27.432Z,10.83
2023-04-29T00:35:54.060Z,10.80
2023-04-29T00:38:20.681Z,10.86
2023-04-29T00:40:47.467Z,10.73
2023-04-29T00:43:14.242Z,11.19
2023-04-29T00:45:40.919Z,10.94
2023-04-29T00:48:08.024Z,10.80
2023-04-29T00:50:34.943Z,10.96
2023-04-29T00:53:01.650Z,10.76
2023-04-29T00:55:29.040Z,10.89
2023-04-29T00:57:57.315Z,10.79
2023-04-29T01:00:24.077Z,10.56
2023-04-29T01:02:51.198Z,10.56
2023-04-29T01:05:18.093Z,10.84
2023-04-29T01:08:05.811Z,10.88
2023-04-29T01:10:41.975Z,10.87
2023-04-29T01:13:29.688Z,10.86
2023-04-29T01:16:04.892Z,10.82
2023-04-29T01:18:42.129Z,10.64
2023-04-29T01:21:08.773Z,10.65
2023-04-29T01:23:35.395Z,10.68
2023-04-29T01:26:02.273Z,10.23
2023-04-29T01:28:47.317Z,10.77
2023-04-29T01:31:28.355Z,10.68
2023-04-29T01:34:19.986Z,10.69
2023-04-29T01:36:58.625Z,10.33
2023-04-29T01:40:07.046Z,10.54
2023-04-29T01:42:42.952Z,10.76
2023-04-29T01:45:11.881Z,10.58
2023-04-29T01:47:39.367Z,10.58
2023-04-29T01:50:06.602Z,10.66
2023-04-29T01:52:33.296Z,10.55
2023-04-29T01:54:59.978Z,10.50
2023-04-29T01:57:26.606Z,10.27
2023-04-29T01:59:53.431Z,10.37
2023-04-29T02:02:20.210Z,10.50
2023-04-29T02:04:47.307Z,10.54
2023-04-29T02:07:14.077Z,10.56
2023-04-29T02:09:40.777Z,10.35
2023-04-29T02:12:07.422Z,10.49
2023-04-29T02:14:35.044Z,10.46
2023-04-29T02:17:03.488Z,10.29
2023-04-29T02:19:30.213Z,10.49
2023-04-29T02:21:56.892Z,10.46
2023-04-29T02:24:23.588Z,10.52
2023-04-29T02:26:50.327Z,10.64
2023-04-29T02:29:17.030Z,10.60
2023-04-29T02:31:43.714Z,10.47
2023-04-29T02:34:10.410Z,10.61
2023-04-29T02:36:37.012Z,10.67
2023-04-29T02:39:03.626Z,10.68
2023-04-29T02:41:30.295Z,10.47
2023-04-29T02:44:00.063Z,10.62
2023-04-29T02:46:27.032Z,10.22
2023-04-29T02:48:55.227Z,10.31
2023-04-29T02:51:21.914Z,10.37
2023-04-29T02:53:48.754Z,10.47
2023-04-29T02:56:15.403Z,10.37
2023-04-29T02:58:42.044Z,10.50
2023-04-29T03:01:08.702Z,10.41
2023-04-29T03:03:35.450Z,10.24
2023-04-29T03:06:02.205Z,10.45
2023-04-29T03:08:29.007Z,10.33
2023-04-29T03:10:55.596Z,10.26
2023-04-29T03:13:22.377Z,10.45
2023-04-29T03:15:49.145Z,10.28
2023-04-29T03:18:15.813Z,10.58
2023-04-29T03:20:42.644Z,10.36
2023-04-29T03:23:09.295Z,10.19
2023-04-29T03:25:35.946Z,10.21
2023-04-29T03:28:02.663Z,10.17
2023-04-29T03:30:29.358Z,10.28
2023-04-29T03:32:56.085Z,10.19
2023-04-29T03:35:22.747Z,10.05
2023-04-29T03:37:49.457Z,10.21
2023-04-29T03:40:16.244Z,10.20
2023-04-29T03:42:43.026Z,10.39
2023-04-29T03:45:10.412Z,10.72
2023-04-29T03:47:37.148Z,10.49
2023-04-29T03:50:04.187Z,10.41
2023-04-29T03:52:30.963Z,10.43
2023-04-29T03:54:57.660Z,10.35
2023-04-29T03:57:24.245Z,10.12
2023-04-29T03:59:51.260Z,9.92
2023-04-29T04:02:18.372Z,9.98
2023-04-29T04:04:45.671Z,10.38
2023-04-29T04:07:12.762Z,10.33
2023-04-29T04:09:39.385Z,10.22
2023-04-29T04:12:06.743Z,10.00
2023-04-29T04:14:33.475Z,10.09
2023-04-29T04:17:00.504Z,10.25
2023-04-29T04:19:27.182Z,10.20
2023-04-29T04:21:53.780Z,10.24
2023-04-29T04:24:20.643Z,10.12
2023-04-29T04:26:47.278Z,10.38
2023-04-29T04:29:14.053Z,10.04
2023-04-29T04:31:40.679Z,10.13
2023-04-29T04:34:07.408Z,10.12
2023-04-29T04:36:34.129Z,9.97
2023-04-29T04:39:00.822Z,10.03
2023-04-29T04:41:27.422Z,10.11
2023-04-29T04:43:54.033Z,10.03
2023-04-29T04:46:22.615Z,9.91
2023-04-29T04:48:49.413Z,10.07
2023-04-29T04:51:16.055Z,10.05
2023-04-29T04:53:42.723Z,9.92
2023-04-29T04:56:09.378Z,10.01
2023-04-29T04:58:36.013Z,9.78
2023-04-29T05:01:02.699Z,10.01
2023-04-29T05:03:29.496Z,10.20
2023-04-29T05:05:57.697Z,10.19
2023-04-29T05:08:25.600Z,10.26
2023-04-29T05:10:54.157Z,10.11
2023-04-29T05:13:21.337Z,10.12
2023-04-29T05:15:47.970Z,10.17
2023-04-29T05:18:14.619Z,10.23
2023-04-29T05:20:41.369Z,10.30
2023-04-29T05:23:08.046Z,10.21
2023-04-29T05:25:34.945Z,10.62
2023-04-29T05:28:03.282Z,10.58
2023-04-29T05:30:30.087Z,10.47
2023-04-29T05:32:56.893Z,10.34
2023-04-29T05:35:23.609Z,10.70
2023-04-29T05:37:50.394Z,10.62
2023-04-29T05:40:17.164Z,10.58
2023-04-29T05:42:43.766Z,10.73
2023-04-29T05:45:10.768Z,10.49
2023-04-29T05:47:37.746Z,10.29
2023-04-29T05:50:04.923Z,10.32
2023-04-29T05:52:31.569Z,10.55
2023-04-29T05:54:58.212Z,10.59
2023-04-29T05:57:24.852Z,10.51
2023-04-29T05:59:53.858Z,10.62
2023-04-29T06:02:21.286Z,10.47
2023-04-29T06:04:48.205Z,10.69
2023-04-29T06:07:15.404Z,10.84
2023-04-29T06:09:42.155Z,10.55
2023-04-29T06:12:08.756Z,10.43
2023-04-29T06:14:37.694Z,10.48
2023-04-29T06:17:04.436Z,10.57
2023-04-29T06:19:31.177Z,10.42
2023-04-29T06:21:57.778Z,10.82
2023-04-29T06:24:24.546Z,11.21
2023-04-29T06:26:51.460Z,11.08
2023-04-29T06:29:18.143Z,11.10
2023-04-29T06:31:44.769Z,10.88
2023-04-29T06:34:11.518Z,10.98
2023-04-29T06:36:38.154Z,10.62
2023-04-29T06:39:05.153Z,10.79
2023-04-29T06:41:32.880Z,10.71
2023-04-29T06:43:59.479Z,10.94
2023-04-29T06:46:26.176Z,10.94
2023-04-29T06:48:52.963Z,10.84
2023-04-29T06:51:19.638Z,10.93
2023-04-29T06:53:46.268Z,11.03
2023-04-29T06:56:12.971Z,11.13
2023-04-29T06:58:39.635Z,10.89
2023-04-29T07:01:06.380Z,11.14
2023-04-29T07:03:33.109Z,11.13
2023-04-29T07:05:59.785Z,11.08
2023-04-29T07:08:26.427Z,11.65
2023-04-29T07:10:57.115Z,11.33
2023-04-29T07:13:24.870Z,10.83
2023-04-29T07:15:51.852Z,10.64
2023-04-29T07:18:18.528Z,11.21
2023-04-29T07:20:45.257Z,11.01
2023-04-29T07:23:11.939Z,11.44
2023-04-29T07:25:38.603Z,10.90
2023-04-29T07:28:05.382Z,11.40
2023-04-29T07:30:32.195Z,11.25
2023-04-29T07:32:58.816Z,10.92
2023-04-29T07:35:25.639Z,11.24
2023-04-29T07:37:52.395Z,11.47
2023-04-29T07:40:19.089Z,11.30
2023-04-29T07:42:45.772Z,11.01
2023-04-29T07:45:12.510Z,11.44
2023-04-29T07:47:39.623Z,11.46
2023-04-29T07:50:06.680Z,11.30
2023-04-29T07:52:34.718Z,11.31
2023-04-29T07:55:01.665Z,11.44
2023-04-29T07:57:28.303Z,11.71
2023-04-29T07:59:55.030Z,11.70
2023-04-29T08:02:21.992Z,12.02
2023-04-29T08:04:49.309Z,12.01
2023-04-29T08:07:16.199Z,12.13
2023-04-29T08:09:42.845Z,11.99
2023-04-29T08:12:09.613Z,12.24
2023-04-29T08:14:36.268Z,12.17
2023-04-29T08:17:02.914Z,12.11
2023-04-29T08:19:29.728Z,12.20
2023-04-29T08:21:56.477Z,11.65
2023-04-29T08:24:23.181Z,11.95
2023-04-29T08:26:49.843Z,12.20
2023-04-29T08:29:16.486Z,12.52
2023-04-29T08:31:43.232Z,12.64
2023-04-29T08:34:09.941Z,12.24
2023-04-29T08:36:36.583Z,12.42
2023-04-29T08:39:03.527Z,12.81
2023-04-29T08:41:32.418Z,12.68
2023-04-29T08:44:02.135Z,12.90
2023-04-29T08:46:29.570Z,12.75
2023-04-29T08:48:56.919Z,12.67
2023-04-29T08:51:23.597Z,12.78
2023-04-29T08:53:50.515Z,12.93
2023-04-29T08:56:18.311Z,13.24
2023-04-29T08:58:45.340Z,12.73
2023-04-29T09:01:13.594Z,13.13
2023-04-29T09:03:50.417Z,13.36
2023-04-29T09:06:18.137Z,13.16
2023-04-29T09:08:45.156Z,13.36
2023-04-29T09:11:12.883Z,13.60
2023-04-29T09:13:39.773Z,13.85
2023-04-29T09:16:11.683Z,13.87
2023-04-29T09:18:43.325Z,13.98
2023-04-29T09:21:29.144Z,13.84
2023-04-29T09:24:00.900Z,14.15
2023-04-29T09:26:28.291Z,14.28
2023-04-29T09:29:12.379Z,14.16
2023-04-29T09:31:39.409Z,13.25
2023-04-29T09:34:06.432Z,13.26
2023-04-29T09:36:36.678Z,13.62
2023-04-29T09:39:07.777Z,13.58
2023-04-29T09:41:34.473Z,13.65
2023-04-29T09:44:08.854Z,14.05
2023-04-29T09:46:36.904Z,13.86
2023-04-29T09:49:04.184Z,13.60
2023-04-29T09:51:31.244Z,14.07
2023-04-29T09:53:59.847Z,14.22
2023-04-29T09:56:29.102Z,14.68
2023-04-29T09:58:57.503Z,14.64
2023-04-29T10:01:27.835Z,14.57
2023-04-29T10:03:55.405Z,14.71
2023-04-29T10:06:23.178Z,14.70
2023-04-29T10:08:50.638Z,14.55
2023-04-29T10:11:17.729Z,14.74
2023-04-29T10:13:44.982Z,14.77
2023-04-29T10:16:16.126Z,15.08
2023-04-29T10:18:49.899Z,14.91
2023-04-29T10:21:18.793Z,14.78
2023-04-29T10:23:45.863Z,15.00
2023-04-29T10:26:14.637Z,14.94
2023-04-29T10:28:43.891Z,14.93
2023-04-29T10:31:11.146Z,15.15
2023-04-29T10:33:40.800Z,15.13
2023-04-29T10:36:08.017Z,15.37
2023-04-29T10:38:42.809Z,15.38
2023-04-29T10:41:17.215Z,15.24
2023-04-29T10:43:44.010Z,15.30
2023-04-29T10:46:16.610Z,15.17
2023-04-29T10:48:48.355Z,15.41
2023-04-29T10:51:44.439Z,15.61
2023-04-29T10:54:17.333Z,15.99
2023-04-29T10:56:48.369Z,16.28
2023-04-29T10:59:36.837Z,16.37
2023-04-29T11:02:03.681Z,16.13
2023-04-29T11:04:31.450Z,16.06
2023-04-29T11:06:58.461Z,16.14
2023-04-29T11:09:27.918Z,16.38
2023-04-29T11:12:02.388Z,16.32
2023-04-29T11:14:42.028Z,16.46
2023-04-29T11:17:08.669Z,16.64
2023-04-29T11:19:37.490Z,16.63
2023-04-29T11:22:09.573Z,16.70
2023-04-29T11:24:36.351Z,16.87
2023-04-29T11:27:03.441Z,16.85
2023-04-29T11:29:31.664Z,17.01
2023-04-29T11:32:00.063Z,17.07
2023-04-29T11:34:26.861Z,16.97
2023-04-29T11:36:53.968Z,16.29
2023-04-29T11:39:20.676Z,16.56
2023-04-29T11:41:52.434Z,16.63
2023-04-29T11:44:22.491Z,16.62
2023-04-29T11:46:49.306Z,16.69
2023-04-29T11:49:15.975Z,16.72
2023-04-29T11:51:42.676Z,16.15
2023-04-29T11:54:09.366Z,16.14
2023-04-29T11:56:38.156Z,16.55
2023-04-29T11:59:05.195Z,16.89
2023-04-29T12:01:31.937Z,16.91
2023-04-29T12:03:58.959Z,17.11
2023-04-29T12:06:29.716Z,17.23
2023-04-29T12:08:59.305Z,17.26
2023-04-29T12:11:26.196Z,17.27
2023-04-29T12:13:53.132Z,17.27
2023-04-29T12:16:19.855Z,17.32
2023-04-29T12:18:46.811Z,17.60
2023-04-29T12:21:13.672Z,17.78
2023-04-29T12:23:41.434Z,17.93
2023-04-29T12:26:08.810Z,18.09
2023-04-29T12:28:35.489Z,17.93
2023-04-29T12:31:02.187Z,18.00
2023-04-29T12:33:29.982Z,17.76
2023-04-29T12:35:58.392Z,17.79
2023-04-29T12:38:34.931Z,17.47
2023-04-29T12:41:01.852Z,18.07
2023-04-29T12:43:29.727Z,18.59
2023-04-29T12:46:10.453Z,18.75
2023-04-29T12:48:38.248Z,18.75
2023-04-29T12:51:05.833Z,18.85
2023-04-29T12:53:32.558Z,18.93
2023-04-29T12:55:59.346Z,18.39
2023-04-29T12:58:29.716Z,18.76
2023-04-29T13:00:56.864Z,18.52
2023-04-29T13:03:23.974Z,18.22
2023-04-29T13:05:50.931Z,18.13
2023-04-29T13:08:17.555Z,18.38
2023-04-29T13:10:44.452Z,18.61
2023-04-29T13:13:11.129Z,18.52
2023-04-29T13:15:37.901Z,18.15
2023-04-29T13:18:04.998Z,18.21
2023-04-29T13:20:31.861Z,18.63
2023-04-29T13:22:58.583Z,18.57
2023-04-29T13:25:25.294Z,18.51
2023-04-29T13:27:52.060Z,18.72
2023-04-29T13:30:18.798Z,17.53
2023-04-29T13:32:51.630Z,18.34
2023-04-29T13:35:20.298Z,18.72
2023-04-29T13:37:46.939Z,19.16
2023-04-29T13:40:20.217Z,19.09
2023-04-29T13:42:50.469Z,18.71
2023-04-29T13:45:19.919Z,19.11
2023-04-29T13:48:05.761Z,18.92
2023-04-29T13:53:35.886Z,19.48
2023-04-29T13:56:47.595Z,19.65
2023-04-29T14:01:26.113Z,18.89
2023-04-29T14:03:52.831Z,18.90
2023-04-29T14:06:19.593Z,18.91
2023-04-29T14:08:46.237Z,18.37
2023-04-29T14:11:12.851Z,18.28
2023-04-29T14:13:39.505Z,18.93
2023-04-29T14:16:06.526Z,18.54
2023-04-29T14:18:33.322Z,18.38
2023-04-29T14:20:59.945Z,18.74
2023-04-29T14:23:26.552Z,18.88
2023-04-29T14:25:54.658Z,19.27
2023-04-29T14:28:21.616Z,19.40
2023-04-29T14:30:48.247Z,19.72
2023-04-29T14:33:14.913Z,19.95
2023-04-29T14:35:41.512Z,19.53
2023-04-29T14:38:08.212Z,19.73
2023-04-29T14:40:34.858Z,18.03
2023-04-29T14:43:01.475Z,17.77
2023-04-29T14:45:28.247Z,17.85
2023-04-29T14:47:55.017Z,16.98
2023-04-29T14:50:21.847Z,17.56
2023-04-29T14:52:48.448Z,17.56
2023-04-29T14:55:15.131Z,17.97
2023-04-29T14:57:41.746Z,18.33
2023-04-29T15:00:09.143Z,18.06
2023-04-29T15:02:35.908Z,18.21
2023-04-29T15:05:02.602Z,18.41
2023-04-29T15:07:31.584Z,18.65
2023-04-29T15:09:58.454Z,18.79
2023-04-29T15:12:25.050Z,18.75
2023-04-29T15:14:52.297Z,18.06
2023-04-29T15:17:19.251Z,18.05
2023-04-29T15:19:45.894Z,18.21
2023-04-29T15:22:12.589Z,18.70
2023-04-29T15:24:39.218Z,19.35
2023-04-29T15:27:05.981Z,19.65
2023-04-29T15:29:32.632Z,19.30
2023-04-29T15:31:59.304Z,19.97
2023-04-29T15:34:26.015Z,20.00
2023-04-29T15:36:52.821Z,19.70
2023-04-29T15:39:19.400Z,19.28
2023-04-29T15:41:46.038Z,19.36
2023-04-29T15:44:12.709Z,18.72
2023-04-29T15:46:39.400Z,18.46
2023-04-29T15:49:06.142Z,18.80
2023-04-29T15:51:32.990Z,19.02
2023-04-29T15:53:59.665Z,19.21
2023-04-29T15:56:26.241Z,19.05
2023-04-29T15:58:52.869Z,18.95
2023-04-29T16:01:19.900Z,18.19
2023-04-29T16:03:46.681Z,18.57
2023-04-29T16:06:13.421Z,19.15
2023-04-29T16:08:40.116Z,19.82
2023-04-29T16:11:06.944Z,20.04
2023-04-29T16:13:36.200Z,20.22
2023-04-29T16:16:03.219Z,19.88
2023-04-29T16:18:29.850Z,20.11
2023-04-29T16:20:56.718Z,20.20
2023-04-29T16:23:23.413Z,20.36
2023-04-29T16:25:50.217Z,20.77
2023-04-29T16:28:16.881Z,20.59
2023-04-29T16:30:43.641Z,20.31
2023-04-29T16:33:10.234Z,20.16
2023-04-29T16:35:36.964Z,19.73
2023-04-29T16:38:03.829Z,19.24
2023-04-29T16:40:30.425Z,19.34
2023-04-29T16:42:57.027Z,19.03
2023-04-29T16:45:24.560Z,18.90
2023-04-29T16:47:51.426Z,18.88
2023-04-29T16:50:18.247Z,18.76
2023-04-29T16:52:44.985Z,18.56
2023-04-29T16:55:14.782Z,18.70
2023-04-29T16:57:41.464Z,18.42
2023-04-29T17:00:08.685Z,17.83
2023-04-29T17:02:35.582Z,18.54
2023-04-29T17:05:02.312Z,18.70
2023-04-29T17:07:29.190Z,18.40
2023-04-29T17:09:56.222Z,18.28
2023-04-29T17:12:23.133Z,18.53
2023-04-29T17:14:49.783Z,18.38
2023-04-29T17:17:16.421Z,18.30
2023-04-29T17:19:43.090Z,18.12
2023-04-29T17:22:09.734Z,18.04
2023-04-29T17:24:37.331Z,17.95
2023-04-29T17:27:03.976Z,18.10
2023-04-29T17:29:30.553Z,17.86
2023-04-29T17:31:57.254Z,17.56
2023-04-29T17:34:24.084Z,17.32
2023-04-29T17:36:52.680Z,17.42
2023-04-29T17:39:19.879Z,17.18
2023-04-29T17:41:46.529Z,16.71
2023-04-29T17:44:13.239Z,16.48
2023-04-29T17:46:40.402Z,16.45
2023-04-29T17:49:07.000Z,16.10
2023-04-29T17:51:33.625Z,16.41
2023-04-29T17:54:03.713Z,16.22
2023-04-29T17:56:30.402Z,15.81
2023-04-29T17:58:56.993Z,15.76
2023-04-29T18:01:24.102Z,16.14
2023-04-29T18:03:51.023Z,16.05
2023-04-29T18:06:18.052Z,15.93
2023-04-29T18:08:45.767Z,16.13
2023-04-29T18:11:12.426Z,16.06
2023-04-29T18:13:39.700Z,15.95
2023-04-29T18:16:07.423Z,15.84
2023-04-29T18:18:34.293Z,15.63
2023-04-29T18:21:00.941Z,15.47
2023-04-29T18:23:28.053Z,15.44
2023-04-29T18:25:54.747Z,15.49
2023-04-29T18:28:25.251Z,15.43
2023-04-29T18:30:52.649Z,15.19
2023-04-29T18:33:19.392Z,15.12
2023-04-29T18:35:46.143Z,14.92
2023-04-29T18:38:12.970Z,14.92
2023-04-29T18:40:40.528Z,14.85
2023-04-29T18:43:07.291Z,14.84
2023-04-29T18:45:34.015Z,14.57
2023-04-29T18:48:00.842Z,14.49
2023-04-29T18:50:27.506Z,14.60
2023-04-29T18:52:54.276Z,14.52
2023-04-29T18:55:21.044Z,14.46
2023-04-29T18:57:47.669Z,14.49
2023-04-29T19:00:14.560Z,14.43
2023-04-29T19:02:41.231Z,14.50
2023-04-29T19:05:08.507Z,14.45
2023-04-29T19:07:35.163Z,14.39
2023-04-29T19:10:01.966Z,14.43
2023-04-29T19:12:28.692Z,14.28
2023-04-29T19:14:55.335Z,14.16
2023-04-29T19:17:22.095Z,14.28
2023-04-29T19:19:48.797Z,14.13
2023-04-29T19:22:15.767Z,14.05
2023-04-29T19:24:42.429Z,13.87
2023-04-29T19:27:10.029Z,13.69
2023-04-29T19:29:36.707Z,13.64
2023-04-29T19:32:03.692Z,13.43
2023-04-29T19:34:30.428Z,13.43
2023-04-29T19:36:57.033Z,13.39
2023-04-29T19:39:23.656Z,13.38
2023-04-29T19:41:50.243Z,13.36
2023-04-29T19:44:16.874Z,13.27
2023-04-29T19:46:43.631Z,13.12
2023-04-29T19:49:10.343Z,13.15
2023-04-29T19:51:36.945Z,13.18
2023-04-29T19:54:03.681Z,13.26
2023-04-29T19:56:30.283Z,13.42
2023-04-29T19:58:56.917Z,13.36
2023-04-29T20:01:23.635Z,13.22
2023-04-29T20:03:50.385Z,13.17
2023-04-29T20:06:17.276Z,13.28
2023-04-29T20:08:44.255Z,13.22
2023-04-29T20:11:11.114Z,13.21
2023-04-29T20:13:37.813Z,13.14
2023-04-29T20:16:04.675Z,13.26
2023-04-29T20:18:31.304Z,13.15
2023-04-29T20:20:58.121Z,13.15
2023-04-29T20:23:24.763Z,13.28
2023-04-29T20:25:51.463Z,13.10
2023-04-29T20:28:18.085Z,13.31
2023-04-29T20:30:44.735Z,13.15
2023-04-29T20:33:11.434Z,13.02
2023-04-29T20:35:38.134Z,13.18
2023-04-29T20:38:04.924Z,13.14
2023-04-29T20:40:31.547Z,13.11
2023-04-29T20:42:58.179Z,12.90
2023-04-29T20:45:24.927Z,12.92
2023-04-29T20:47:51.578Z,13.26
2023-04-29T20:50:18.297Z,13.14
2023-04-29T20:52:45.205Z,13.06
2023-04-29T20:55:11.973Z,13.36
2023-04-29T20:57:38.740Z,13.24
2023-04-29T21:00:06.121Z,13.01
2023-04-29T21:02:32.800Z,13.06
2023-04-29T21:04:59.634Z,13.06
2023-04-29T21:07:26.469Z,12.89
2023-04-29T21:09:53.245Z,12.77
2023-04-29T21:12:20.127Z,12.87
2023-04-29T21:14:46.788Z,12.72
2023-04-29T21:17:13.644Z,12.73
2023-04-29T21:19:40.478Z,12.88
2023-04-29T21:22:07.152Z,12.71
2023-04-29T21:24:33.861Z,12.72
2023-04-29T21:27:00.524Z,12.65
2023-04-29T21:29:27.144Z,12.78
2023-04-29T21:31:53.862Z,12.75
2023-04-29T21:34:20.569Z,12.66
2023-04-29T21:36:47.331Z,12.81
2023-04-29T21:39:14.079Z,12.64
2023-04-29T21:41:41.618Z,12.74
2023-04-29T21:44:08.375Z,12.66
2023-04-29T21:46:35.832Z,12.63
2023-04-29T21:49:03.308Z,12.47
2023-04-29T21:51:30.004Z,12.58
2023-04-29T21:53:56.616Z,12.72
2023-04-29T21:56:23.314Z,12.69
2023-04-29T21:58:50.166Z,12.58
2023-04-29T22:01:17.164Z,12.41
2023-04-29T22:03:43.860Z,12.38
2023-04-29T22:06:10.552Z,12.58
2023-04-29T22:08:37.236Z,12.63
2023-04-29T22:11:05.940Z,12.50
2023-04-29T22:13:32.657Z,12.45
2023-04-29T22:15:59.346Z,12.56
2023-04-29T22:18:26.002Z,12.52
2023-04-29T22:20:55.766Z,12.37
2023-04-29T22:23:22.368Z,12.49
2023-04-29T22:25:49.044Z,12.42
2023-04-29T22:28:15.825Z,12.50
2023-04-29T22:30:42.631Z,12.56
2023-04-29T22:33:10.013Z,12.60
2023-04-29T22:35:36.715Z,12.29
2023-04-29T22:38:03.368Z,12.33
2023-04-29T22:40:30.098Z,12.45
2023-04-29T22:42:56.838Z,12.40
2023-04-29T22:45:23.474Z,12.45
2023-04-29T22:47:50.183Z,12.49
2023-04-29T22:50:16.861Z,12.32
2023-04-29T22:52:43.482Z,12.33
2023-04-29T22:55:10.214Z,12.09
2023-04-29T22:57:36.912Z,11.83
2023-04-29T23:00:03.879Z,11.78
2023-04-29T23:02:30.483Z,11.88
2023-04-29T23:05:00.869Z,12.29
2023-04-29T23:07:27.583Z,12.09
2023-04-29T23:09:54.414Z,12.31
2023-04-29T23:12:21.499Z,12.33
2023-04-29T23:14:48.125Z,12.20
2023-04-29T23:17:14.783Z,12.29
2023-04-29T23:19:41.503Z,12.21
2023-04-29T23:22:08.519Z,12.16
2023-04-29T23:24:35.227Z,12.04
2023-04-29T23:27:02.386Z,12.09
2023-04-29T23:29:32.460Z,11.97
2023-04-29T23:31:59.181Z,11.87
2023-04-29T23:34:25.863Z,12.13
2023-04-29T23:36:52.577Z,11.94
2023-04-29T23:39:19.161Z,11.95
2023-04-29T23:41:45.825Z,11.95
2023-04-29T23:44:12.523Z,11.68
2023-04-29T23:46:39.453Z,11.75
2023-04-29T23:49:06.157Z,11.75
2023-04-29T23:51:32.902Z,12.02
2023-04-29T23:53:59.539Z,11.91
2023-04-29T23:56:26.350Z,11.88
2023-04-29T23:58:52.931Z,11.85
